English version (google)  Retour à l'accueil Ecrire à l'auteur du site Runraid : Michel Jourdan


 Visitez La Boutique 



Les prochaines courses


Les derniers résultats

cliquez pour visualiser la page complète relatant la chronologie des éruptions du Piton de la Fournaise
éruptions Piton de la Fournaise


Ile de La Réunion

 Diagonale des Fous 

Ecrire au créateur du site : Michel Jourdan
Contact


2019-08-26 - MCC 2019

Pour consulter le palmarès d'un coureur, un clic sur son nom !

Vous avez des remarques, corrections, ... sur ces résultats , un clic sur --> pour me transmettre toute information concernant les classements


MCC 2019 - 2019 : classement des 950 finishers
Place Nom Temps Cat. Club Sexe Clt/cat.
Place Nom Temps Cat. Club Sexe Clt/cat.
1 COSTA Cesar 03:40:46 V1M SUI M 13251
2 ADAM Guillaume 03:51:49 SEM FRA M 13253
3 ZAMORA PEREZ Pau 03:53:27 V1M ESP M 13953
4 GOMEZ GUITART Alvaro 04:07:36 ESM ESP M 13001
5 CALANDRI Daniele 04:11:42 SEM ITA M 13003
6 PLATET Morgan 04:17:00 SEM FRA M 13957
7 AVRILLON Nicolas 04:18:04 SEM FRA M 13966
8 JULIEN Stelio 04:18:56 ESM FRA M 13961
9 ADAM Romain 04:22:06 SEM FRA M 13256
10 BOVARD Aurelien 04:23:02 SEM FRA M 13272
11 CAILLET Samuel 04:24:23 SEM FRA M 13257
12 SOULIER Emeric 04:24:55 SEM FRA M 13958
13 MAHI Tayeb 04:26:02 V1M FRA M 13260
14 SANSEGUNDO ROMERO Manuel 04:29:07 SEM ESP M 13964
15 KOZIOL Damian 04:31:08 SEM POL M 13954
16 MAYOL Bertrand 04:31:54 V1M FRA M 13267
17 RIVO Thomas 04:33:51 SEM FRA M 13262
18 TAMANINI Marc 04:34:57 SEM FRA M 13254
19 CLAP Cesare 04:36:29 V2M ITA M 13261
20 GRIFOLL BRAVO Arnau 04:38:26 SEM ESP M 14335
21 STOTEN Ollie 04:39:27 SEM GBR M 13962
22 COATES James 04:40:11 V1M GBR M 13269
23 DESMURS Laure 04:41:25 SEF FRA F 1ere F 13258
24 BESNIER Thomas 04:41:29 SEM FRA M 13312
25 WYWLOKA Paulina 04:42:01 SEF POL F 2 F 13951
26 MARIELLE Francis 04:43:19 SEM FRA M 13903
27 CORNUAU Damien 04:43:44 V1M FRA M 13977
28 LIBIN Christophe 04:44:01 SEM BEL M 13058
29 FLORI Cecilia 04:47:36 SEF ITA F 3 F 14367
30 MADEC Stephane 04:49:42 SEM FRA M 13299
31 MUGNIER Yannick 04:49:57 V1M FRA M 14372
32 HAUTIER David 04:51:34 SEM FRA M 13970
33 CHIARELLO Deborah 04:51:47 SEF SUI F 4 F 13255
34 BAYON MENENDEZ Pedro 04:51:50 V1M ESP M 14314
35 DE PABLO Jose Antonio 04:51:51 V1M ESP M 14325
36 VARIN Simon 04:54:21 V1M FRA M 13270
37 SENANGE Arthur 04:55:50 SEM FRA M 13276
38 AZUA Diego 04:56:07 SEM ARG M 13967
39 HAMOUMRAOUI Nicolas 04:56:13 ESM FRA M 13263
40 WATERMAN EVANS Louis 04:56:40 SEM GBR M 13979
41 ESCOBAR CARRON Sara 04:56:44 SEF SUI F 5 F 13002
42 PERSSON BUENO Daniel 04:57:00 SEM ESP M 13959
43 BERNARD Jerome 04:57:41 V1M FRA M 13986
44 GACHET Bastien 04:58:12 V1M FRA M 13273
45 DUBRULLE Alex 04:59:05 SEM FRA M 13357
46 BOUSSEAU Frederic 04:59:07 V2M FRA M 13983
47 ALARCON Diego 04:59:08 SEM FRA M 13968
48 VULLIEZ Stephane 04:59:22 V2M FRA M 13294
49 CHABERGE Fabrizio 05:01:03 V1M ITA M 13287
50 LASNEL Vincent 05:04:38 SEM FRA M 13019
51 ROM Zoe 05:04:46 SEF USA F 6 F 14374
52 REGUERA Hector 05:05:13 SEM ESP M 13282
53 REYT Martin 05:06:39 SEM FRA M 14379
54 JEZOUIN Christophe 05:06:47 ESM FRA M 13326
55 VALVERDE CASTAN Jonathan 05:07:57 SEM ESP M 14024
56 KRANGA Antons 05:08:35 SEM LAT M 13999
57 KHADRI Ahkim 05:08:41 V1M FRA M 13297
58 BLANC Stephane 05:08:47 V1M FRA M 13309
59 SANTANA SANTANA Nestor 05:09:01 SEM ESP M 14012
60 JOHANSSON Tobias 05:09:54 SEM SWE M 13963
61 M CALVET VILA Josep 05:10:33 V1M ESP M 14355
62 CHAMPENOIS Romain 05:12:14 ESM FRA M 13281
63 DUARTE Micael 05:12:28 SEM POR M 13788
64 POPE Tom 05:12:32 SEM GBR M 14364
65 CHAN Hector 05:12:52 SEM FRA M 13313
66 NAZARIO Fernando 05:12:55 SEM BRA M 13974
67 GONZALEZ SERRANO Xavier 05:13:14 V1M ESP M 14005
68 PEREIRA Arnaud 05:13:23 SEM FRA M 13868
69 CHERAZ Claudio 05:14:08 V2M ITA M 13289
70 GAY Frederic 05:14:30 SEM SUI M 13799
71 DUBY Fabien 05:14:38 SEM FRA M 13895
72 MROWIEC Jakub 05:15:03 SEM POL M 14008
73 CHADOURNE Florian 05:16:21 SEM FRA M 13376
74 LEGON Nicolas 05:16:31 V1M FRA M 13368
75 DARBELLAY Valentin 05:16:34 ESM SUI M 13359
75 MONTAGNER Nicolas 05:16:34 SEM SUI M 13283
77 DECHAMP Christophe 05:16:41 V1M FRA M 13026
78 ROTY Anthony 05:16:54 SEM FRA M 13300
79 MONCELLI Matteo 05:18:05 V1M ITA M 13976
80 OLSEN Stine Baegaard 05:18:25 SEF DEN F 7 F 14300
81 VIARD Aline 05:20:53 SEF FRA F 8 F 13279
82 PERRET Jean Claude 05:21:25 V3M FRA M 13277
83 COLLADO Javier 05:21:45 SEM ESP M 13972
84 SLEMETT Leo 05:22:03 SEM FRA M 13872
85 SABITTONI Lucie 05:22:04 SEF FRA F 9 F 13271
86 SIFONIOS David 05:23:01 SEM SUI M 14052
87 JOURDAIN Flavien 05:23:06 V1M FRA M 13387
88 ROUX Anne Laure 05:23:32 SEF FRA F 10 F 13170
89 SENECHAL Nicolas 05:23:38 SEM FRA M 13978
90 GERARD Romuald 05:25:13 SEM FRA M 13973
91 DUROUX Mauro 05:25:24 V1M ITA M 13580
92 FARQUET Christian 05:25:32 ESM SUI M 13014
93 PITOISET Sebastien 05:26:17 SEM FRA M 13315
94 PALLAIS Maurizio 05:26:36 V1M ITA M 13351
95 DORSAZ Pierrick 05:27:02 SEM SUI M 13305
96 DELATTRE Adrien 05:27:16 SEM FRA M 13308
97 GUIMARAES Pedro 05:27:19 V2M POR M 14056
98 KOZII Maksym 05:27:22 SEM UKR M 14003
99 VULLIEZ Cedric 05:27:34 V1M FRA M 13883
100 PIAZZA Gilles 05:27:43 V2M FRA M 13302
101 SAVOY Marion 05:27:53 SEF FRA F 11 F 13278
102 YARDLEY Benjamin 05:28:24 SEM USA M 14365
103 SANCHEZ ALONSO Adrian 05:29:18 SEM ESP M 14002
104 DATE Shinichiro 05:29:58 V1M JPN M 13988
105 BAVEREL Cindy 05:30:05 SEF FRA F 12 F 13266
106 MELON Alain 05:30:17 V1M FRA M 13314
107 LATHUILLE NICOLLET Anthony 05:30:29 SEM FRA M 13411
108 FIELDEN Jon 05:30:31 V1M GBR M 13320
109 LEMIEGRE Corentin 05:30:42 ESM FRA M 13069
110 STACCHETTI Pierino 05:31:48 V3M ITA M 13317
111 RENAUDIN Hugo 05:32:54 SEM FRA M 13012
112 BARGE Sylvain 05:33:15 SEM FRA M 13292
113 ARNAUD Thibaut 05:33:21 SEM FRA M 13407
114 TAM Chun Fung 05:34:47 SEM HKG M 13995
115 CESBRON LAVAU Emmanuel 05:34:53 SEM FRA M 13885
116 BURNETT Philip 05:35:13 V2M GBR M 13419
117 CHAMPENOIS Eric 05:36:28 V1M FRA M 13345
118 BARRoN JURADO Antonio Javier 05:37:22 SEM ESP M 14038
119 LAUMONIER Julien 05:37:49 SEM FRA M 13461
120 ROBERT Mickael 05:40:17 SEM FRA M 14067
121 KUDELOVA Zuzana 05:40:28 SEF FRA F 13 F 13742
122 MELON Matthieu 05:41:53 ESM FRA M 13428
123 SIMOND Pascal 05:43:00 V2M FRA M 13366
124 LENGLET Nicolas 05:43:04 V1M FRA M 14099
125 GEORGET Elise 05:43:16 SEF FRA F 14 F 13353
126 BERTHET David 05:43:19 SEM FRA M 13446
127 SCOTT Derek 05:43:30 SEM USA M 14350
128 WERBROUCK Coralie 05:44:05 SEF FRA F 15 F 13998
129 BIOSCA Carmen 05:44:22 SEF FRA F 16 F 13985
130 CORMIER Francois Eric 05:45:03 V2M FRA M 13071
131 KA?KIR Mehmet G?rcan 05:45:08 SEM TUR M 13112
132 BIELER Katrin 05:45:11 SEF ITA F 17 F 13268
133 VENTURA Anna 05:45:30 SEF ESP F 18 F 13984
134 CHARPIN Mathieu 05:45:58 SEM FRA M 13477
135 LEROY Corentin 05:46:40 SEM FRA M 13851
136 CARBONI Stephane 05:46:41 V1M FRA M 13414
137 CHAPON DIERNAZ Jeremy 05:47:41 ESM FRA M 13435
138 DOUMENGEUX TUCOULET Frederic 05:49:19 V1M FRA M 13409
139 AUDRAN Stephane 05:49:36 V1M FRA M 13377
140 TORO Andy 05:50:05 SEM VEN M 14139
141 BOT Kevin 05:50:12 SEM FRA M 13434
142 PANGALLO Matteo 05:50:27 SEM ITA M 14345
143 MART?NEZ GARC?A Francisco Jose 05:51:22 V2M ESP M 14043
144 PECHE Jacky 05:51:27 V3M FRA M 13084
145 BERAUD Patrick 05:51:29 V2M SUI M 13068
146 LE BEL Jean Marc 05:52:05 V2M FRA M 13990
147 AMSTUTZ Jean Luc 05:52:10 V3M SUI M 14036
148 WELLS Brooke 05:52:38 SEF USA F 19 F 14306
149 DUCLOS Daniel 05:52:52 V3M FRA M 13356
150 CARBONELL DUAYG?ES Albert 05:52:57 V1M ESP M 14022
151 CHASE Mark 05:53:31 SEM GBR M 14126
152 BLANC Daniele 05:53:58 V1F FRA F 1 V1F 13290
153 DE SOUSA Remy 05:55:01 SEM SUI M 13399
154 FEDON Emmanuel 05:55:20 V1M FRA M 14047
155 RUBIN Fanny 05:55:21 SEF FRA F 13965
156 LEPOIDEVIN Baptiste 05:55:35 SEM FRA M 13550
157 MCBRIDE William 05:55:42 SEM USA M 14060
158 GIRE Jerome 05:56:33 SEM FRA M 13475
159 TEDESCO Francesco 05:56:37 V1M ITA M 14031
160 BESNIER Florent 05:56:39 SEM FRA M 13396
161 BRESCOL? BADIA Marc 05:56:44 SEM ESP M 13980
162 RICHARD Christian 05:56:52 SEM SUI M 13530
163 LECLERC Jean Pierre 05:57:42 V2M FRA M 13032
164 HEDDE Benjamin Laurent 05:57:45 SEM FRA M 13887
165 PURVIS Loyd 05:58:02 V1M GBR M 14032
166 KACZMAREK Dorota 05:58:06 SEF POL F 13989
166 KRAUSE Tomasz Jakub 05:58:06 SEM POL M 14017
168 TISSIeRES Maxime 05:58:11 SEM SUI M 13484
169 CHRISTIAN Paul 05:58:14 SEM GBR M 14080
170 ORO Miguel 05:58:17 V1M ESP M 14035
171 MARANGONE Yann 05:58:18 V1M FRA M 13440
172 PINCHERELLE Anthony 05:58:19 SEM FRA M 13340
173 BAUD Nicolas 05:58:54 ESM FRA M 13421
174 OLLAGNIER Cyrille 05:59:51 SEM FRA M 14088
175 MOSCONI Corrado 06:00:09 V2M ITA M 13333
176 MARIN Florine 06:00:11 SEF FRA F 14004
177 MIYAKE Fumihiko 06:01:08 SEM JPN M 14021
178 BADIOLA GURIDI Andoni 06:01:22 SEM ESP M 14015
179 GHISOLI Fabrice 06:02:10 SEM SUI M 13519
180 TREBOUX Jean Michel 06:02:46 V2M FRA M 13041
180 BOURCET Olivier 06:02:46 V2M FRA M 13488
182 DEJEAN Olivier 06:03:28 V2M FRA M 14112
183 PETEY Patrick 06:03:40 V1M ITA M 13426
184 COMPAGNONE David 06:03:58 V1M FRA M 13516
185 PAILLAT Jerome 06:04:20 V1M FRA M 14117
186 LARDET Olivier 06:05:17 V1M FRA M 13474
187 MISCHLER Matthieu 06:05:39 SEM FRA M 14157
188 CROSE Andris 06:05:44 SEM ITA M 13540
189 MARCHIORO Jordan 06:06:00 SEM FRA M 13386
189 PERCHE Kevin 06:06:00 SEM FRA M 13455
191 MICHEL Lucile 06:06:13 SEF FRA F 13291
192 DUROCHER Thomas 06:06:14 SEM FRA M 13311
193 PASQUIER Sebastien 06:06:43 V1M FRA M 13566
194 BRISSARD Cyril 06:07:06 V2M FRA M 13433
195 ARNAL Jose 06:07:15 V1M SUI M 13420
196 AGNETTI Gaetan 06:07:45 SEM FRA M 13349
197 GUILLARD Julien 06:07:50 SEM FRA M 13840
198 BINKS Jonathan 06:08:26 V1M GBR M 13858
199 YOSHIRO Abe 06:08:40 V1M JPN M 14351
200 ROSSIER Pierre 06:08:50 SEM SUI M 13323
201 SOCQUET Mathieu 06:09:02 SEM FRA M 13829
202 PERRET Alexandre 06:09:12 SEM FRA M 13448
203 FERNANDEZ Elisa 06:09:14 SEF FRA F 13285
204 MESTRE Rui 06:10:31 V1M SUI M 13534
205 BECQUART Ondine 06:10:43 SEF FRA F 13293
206 BUISSON Philippe 06:10:44 V2M FRA M 13618
207 DEPARDE David 06:11:06 V1M FRA M 13331
208 DESPICHT Yann 06:11:07 SEM FRA M 13390
209 BENOIT Anne 06:11:49 SEF FRA F 13016
210 SERASSET Jean Pierre 06:12:01 V2M FRA M 13023
211 MAILLET Perrine 06:12:20 V1F FRA F 2 V1F 14001
212 ENJALBERT Nicolas 06:12:23 V1M FRA M 13337
213 BOCHATON Sebastien 06:12:30 SEM FRA M 13310
214 RUBBO Igor 06:12:39 V2M ITA M 13301
215 NEVES Joao 06:13:20 SEM POR M 14049
216 HUGUES Chloe 06:14:43 SEF FRA F 13778
217 VAN HECKE Stephane 06:14:52 V1M BEL M 13875
218 BERTHELOT Elliot 06:15:06 SEM FRA M 14316
219 HENDERSON Rhys 06:15:14 V3M GBR M 14158
220 BOULAND Thierry 06:16:01 V3M FRA M 13050
221 REBELO Jorge 06:16:12 V1M POR M 13593
222 DOTTRENS Julien 06:16:24 V1M SUI M 14328
223 LINGHOFF Kay 06:16:26 V2M SWE M 13382
224 SERAIN Alexandre 06:16:52 SEM FRA M 13503
225 MCLEAN Scott 06:16:54 V1M AUS M 14344
226 LEBEAU Emmanuel 06:16:57 V1M FRA M 13432
227 LEVI Michael 06:17:02 V1M SUI M 14172
228 CARRERAS Xavier 06:17:19 V1M ESP M 14310
229 BURVENIQUE Romain 06:17:24 SEM FRA M 13324
230 BELISSENT Nicolas 06:17:26 ESM FRA M 13512
231 MAYE Jean Paul 06:17:49 V2M SUI M 13586
232 BARBET Julie 06:18:42 SEF FRA F 13322
233 MONROY ESPEJO Guadalupe 06:18:51 SEF ESP F 14019
234 LATTION Georges Andre 06:18:57 V1M SUI M 13507
235 LEAL Luce 06:19:02 SEF FRA F 13341
236 BADICEANU Lia 06:19:10 SEF FRA F 13011
237 MONIN Jean Luc 06:19:39 V2M FRA M 13460
238 RAUSIS Clement 06:19:43 SEM SUI M 13494
239 TAHANI Nasser 06:20:05 SEM FRA M 13472
240 RODUIT Andre Marcel 06:20:13 V3M SUI M 13533
241 DUTHU Jerome 06:20:39 V1M FRA M 13521
242 KAWAI Kotaro 06:20:51 SEM JPN M 14175
243 MOULIN Gerard 06:21:10 V1M SUI M 13529
244 MTZAIKOFF Kevin 06:21:18 SEM FRA M 13194
245 MANGIARDI Francescantonio 06:21:23 V1M ITA M 13350
245 IENARO Giovanni 06:21:23 V1M ITA M 13344
247 ROSSET Jessica 06:21:33 SEF FRA F 13304
248 DAUTRICOURT Emmanuel 06:21:40 V1M FRA M 13067
249 BECKWITH Alan 06:22:13 V1M GBR M 13453
250 DURAFFORT Fabien 06:23:06 SEM FRA M 13454
251 BILLMANN Franck 06:24:17 V1M FRA M 13175
251 MORAND Romain 06:24:17 V1M FRA M 13408
253 CARRIER Pierre 06:24:42 V3M FRA M 14093
253 BROILLIARD Lionel 06:24:42 V1M FRA M 13086
255 VIDAL Caroline 06:24:43 V1F FRA F 3 V1F 14009
256 AQUINO Luciano 06:25:06 SEM BRA M 14315
257 BOUILLET Gilbert 06:25:11 V3M FRA M 13125
258 LANDINI Alessandro 06:25:13 SEM ITA M 14132
259 LUISIER Cedric 06:25:28 V1M SUI M 13565
260 GRANDCHAMP David 06:26:09 SEM SUI M 13109
261 BRUN Jerome 06:26:11 V1M FRA M 14177
262 SEGRAIS Margaux 06:26:30 SEF FRA F 13757
263 CHARLOT Tony 06:26:35 SEM FRA M 13061
264 BRAUN Wolfgang 06:26:50 V3M GER M 14026
265 GRAZIANO Francesca 06:26:54 SEF ITA F 13288
266 AZZOPARDI PELLEGRINI Marina 06:27:09 V1F FRA F 13327
267 CHIRENT Tanguy 06:27:21 ESM FRA M 13844
268 MAZUREK Tomasz 06:28:13 V1M POL M 14107
269 DELECOUR Auriane 06:28:16 ESF FRA F 1 ESF 13158
270 DUCLOS Laurent 06:28:29 V1M FRA M 13425
271 CORDONNIER Jeremy 06:28:32 SEM FRA M 14087
272 LAWON Gordon 06:28:48 V2M GBR M 13864
273 LASNIER Nicolas 06:29:01 SEM FRA M 14156
274 LANGOISSEUR Laurent 06:29:28 V2M FRA M 13009
275 ROSSET Emmanuel 06:29:32 SEM SUI M 13082
276 CAMILLIERI Emilien 06:29:33 SEM FRA M 14064
277 PELEGAY SALAS David 06:29:38 SEM ESP M 14142
278 CHIAVASSA Julien 06:29:54 V1M FRA M 14311
279 TAI Fung In 06:29:55 SEF HKG F 13981
280 CHIARELLI Maxime 06:29:57 SEM SUI M 13437
281 HOFF Helmut 06:30:01 V3M GER M 14098
282 CRISTOL Philippe 06:30:37 V3M FRA M 13436
283 FALKINER Chris 06:30:42 V2M GBR M 13470
284 ROUSSET Frederic 06:30:44 V2M FRA M 14101
285 DE CASTRO Geraldine 06:30:49 SEF FRA F 13020
286 SALLET Emilie 06:30:50 SEF FRA F 13325
287 MAYER Doug 06:30:56 V2M USA M 13397
287 SMITH Georgina 06:30:56 SEF GBR F 13994
289 RUCK Giles 06:30:57 V2M GBR M 14018
289 ANDREW Emily 06:30:57 SEF FRA F 14280
291 BLANC Alexis 06:31:05 V1M FRA M 14104
292 DIAZ CANOVAS Jose 06:31:07 V1M ESP M 14063
293 CROZET Valentin 06:31:15 ESM FRA M 13328
294 JASMIN Stanley 06:31:18 SEM FRA M 13646
295 MARCONCINI Massimo 06:31:19 SEM ITA M 13471
296 BAJTLIK Jan 06:31:23 SEM POL M 14231
297 SINEAU Julien 06:31:33 SEM FRA M 13443
298 DUMENIL Olivier 06:31:54 V1M FRA M 14037
299 PLAISANCE Florian 06:32:17 SEM FRA M 14169
300 COELHO Marco 06:32:22 V1M POR M 13502
301 DUBOIS Guillaume 06:32:44 V2M FRA M 13046
302 MENETRIER Bertrand 06:32:47 V1M FRA M 13392
303 BRACQ Julien 06:32:59 SEM FRA M 13296
304 FELLAY Camille 06:33:01 SEF SUI F 13728
305 BURNET Antoine 06:33:09 V1M FRA M 13904
306 PELLEGRINI Fabien 06:33:44 V1M FRA M 13496
307 GILLET Joachim 06:34:37 V1M FRA M 13549
308 MAGNIN ROBIN Cecile 06:34:57 V2F FRA F 1 V2F 13348
309 DE MORAIS Jean Marc 06:35:41 V2M FRA M 14135
310 RICHARD Michael 06:35:54 V1M FRA M 13338
311 SWINERS Laetitia 06:36:01 SEF FRA F 13352
312 BLANCO ALLAIS Federico 06:36:07 SEM ESP M 13525
313 NAACKE POST Astrid 06:36:08 SEF FRA F 13767
314 VERNAY Reynald 06:36:12 SEM SUI M 13806
315 MOREELS Camille 06:36:56 SEF FRA F 13013
316 PEGEAULT Xavier 06:37:04 SEM FRA M 13821
317 YE Sangkuk 06:37:44 SEM KOR M 14010
318 LABORIE Richard 06:37:59 V2M FRA M 13896
319 KIEFFER Sarah 06:38:44 V2F FRA F 2 V2F 13467
320 SIMONNEAU Laurent 06:39:33 V1M FRA M 13052
321 CIANCI Luana 06:39:49 V2F ITA F 3 V2F 13298
322 NIKIEL Sebastien 06:40:20 V1M FRA M 14122
323 ALVARO Carlos 06:40:33 V1M ESP M 14183
324 CARRO USLE Gorka 06:40:34 V1M ESP M 14186
325 BOTTIN Marie Laure 06:41:18 SEF FRA F 13306
325 PEIME Rodolfo 06:41:18 SEM CHI M 14349
327 BIDAUD Raphael 06:41:20 SEM SUI M 13798
328 THURRE Florent 06:41:32 SEM SUI M 13595
329 HEIJNEN Yvette 06:41:47 V1F NED F 13346
330 CUSIN Gabriel 06:41:48 V2M FRA M 13855
331 STEWART John 06:41:53 V1M GBR M 14155
332 CHENAILLER Herve 06:42:01 SEM FRA M 13412
333 FERNEX Yoann 06:42:08 SEM FRA M 13394
334 PIGOZZO Mauro 06:42:11 SEM ITA M 14123
335 FASSIER Yoann 06:42:38 SEM FRA M 13524
336 TOGNETTO Alessandro 06:43:03 V2M ITA M 13480
337 COMBET Myriam 06:43:13 V2F FRA F 13449
338 PRITCHARD Robert 06:43:17 V1M GBR M 13853
339 ROTEM Daniel 06:43:20 SEM ISR M 14348
340 VESTERGAARD Jakob 06:43:32 V2M DEN M 14195
341 MARTINON Gaetan 06:43:51 SEM FRA M 13085
342 DUMONT Jean Baptiste 06:43:54 SEM FRA M 14190
343 STARCKMANN Charles Henri 06:44:04 SEM BEL M 14133
344 AUDENAERT Philip 06:44:10 V1M BEL M 14061
345 MACFARLANE Paul 06:44:18 V1M GBR M 14168
346 BIGO Josephine 06:44:44 SEF FRA F 14281
347 DECHAVANNES Nicolas 06:44:55 V1M FRA M 13531
348 KURY Flaubert 06:45:01 SEM FRA M 13018
349 DUAY Ludovic 06:45:12 SEM SUI M 13479
350 CARVALHOSA Marylise 06:45:26 SEF FRA F 14020
351 CAMPBELL Claudia 06:45:31 V1F GBR F 13334
352 SPIVAK Sergii 06:45:37 SEM UKR M 14181
353 PERNEL Marlene 06:45:39 SEF FRA F 14016
354 CAMPBELL Gillon 06:46:09 V1M GBR M 13588
355 MEMBRe Michel 06:46:35 V1M FRA M 13508
356 MUZEAU Sophie 06:47:11 V2F FRA F 14368
357 CUSIN Jean Luc 06:47:25 V3M FRA M 13606
358 BESSE Christophe 06:47:37 V2M SUI M 13786
359 BALLEYS Olivier 06:47:42 V1M SUI M 13495
360 BODIN Mathias 06:47:56 SEM FRA M 14318
361 RAULT Severine 06:48:12 SEF FRA F 13034
362 VINCENT Joffrey 06:48:24 SEM FRA M 13062
363 DEPRAS Olivier 06:48:30 SEM FRA M 14128
364 RIGAL Olivier 06:48:31 V2M FRA M 13627
365 EZRA Kathryn 06:48:32 SEF CAN F 13991
366 DAYER Anny 06:49:03 V2F SUI F 13735
367 MARIAUX Marcel 06:49:05 V3M SUI M 13513
368 SMITH Krysia 06:49:10 V1F GBR F 13993
369 PAGLIACCI Mauricio 06:49:29 SEM ARG M 14373
370 LECHET Ugo 06:49:37 ESM FRA M 13187
371 MACHADO DE OLIVEIRA Alexandre 06:49:40 SEM BRA M 14341
372 VACHERON Guillaume 06:50:04 V1M FRA M 13400
373 VELEZ POLONIO Ramon 06:50:15 V1M ESP M 14313
374 GUINAND Serge 06:50:33 V3M FRA M 13185
375 KEIGHTLEY Jonathan 06:50:37 V1M NZL M 13450
376 LUNDELL Patric 06:51:02 SEM SWE M 13865
377 CLEVY Yannick 06:51:06 V1M FRA M 13179
378 CARBONE Francesco 06:51:09 SEM ITA M 14320
379 COURTELLEMONT Thibault 06:51:27 SEM FRA M 13526
380 VICO Paulino 06:51:47 SEM ESP M 13202
381 PIGEON Maxime 06:52:00 V1M FRA M 13616
382 LARPIN Tristan 06:52:18 SEM SUI M 13594
383 RAPPENNE Jacques 06:52:23 V1M FRA M 13652
384 DUFRENE Boris 06:52:24 V1M FRA M 13832
385 TYSZKIEWICZ Rafal 06:52:47 V1M POL M 14159
385 SADOWSKA Beata 06:52:47 V1F POL F 14072
385 CAPPI Alexandre 06:52:47 V2M SUI M 13634
388 BERTHOLON Florian 06:53:40 SEM FRA M 14092
389 SGAMMATO Amelia 06:53:41 V2F ITA F 14055
390 PHILIPOT Romain 06:53:55 SEM FRA M 14346
391 DERIVAZ Camille 06:54:01 SEF SUI F 13405
392 MAZIERE David 06:54:11 V1M FRA M 13878
393 MOTTA Erica 06:54:15 SEF ITA F 13737
394 MCBRIDE Penny 06:54:16 V2F USA F 14095
395 BRIANcON Guillaume 06:54:33 V1M FRA M 14218
396 CAUMONT Yves 06:54:47 V2M FRA M 13569
397 GEORGES Claire 06:54:50 SEF FRA F 13163
397 DAMOIZET David 06:54:50 V1M FRA M 13391
399 BOUCHER Antoine 06:55:06 ESM FRA M 13110
400 ROUSSIN Charlotte 06:55:12 SEF FRA F 13781
401 VITTE Juliette 06:55:32 ESF FRA F 2 ESF 13025
402 SOMMER Magali 06:55:41 SEF SUI F 13393
403 RAMUZ Joseph 06:56:06 SEM SUI M 13362
403 LUGON Jonathan 06:56:06 SEM SUI M 13527
405 DARBELLAY Christophe 06:56:16 V1M SUI M 13599
406 LUTRINGER Julie 06:56:22 V1F FRA F 14058
407 PISSARD BRONDEX Ingrid 06:56:43 V1F FRA F 13413
408 DUCROZ Frederic 06:57:22 V1M FRA M 13367
409 CAEIRO Joaquim 06:57:40 V2M POR M 14079
410 STUDZINSKA GIBALOVA Jana 06:58:15 SEF SVK F 13286
411 MATTEL Jean Luc 06:58:22 V2M FRA M 13522
412 BREVET Loric 06:58:30 SEM FRA M 14069
413 VARESIO Franco 06:58:57 V2M ITA M 13201
414 MILLER David 06:59:15 SEM USA M 14215
415 LIMONGI NETTO Leonardo 06:59:19 SEM BRA M 14196
416 CABUT Philippe 06:59:57 V1M FRA M 13065
417 BERRA Jean Max 07:00:19 V2M FRA M 13591
418 RECH Gaetan 07:01:15 SEM FRA M 13486
419 VITENKO Oleksandr 07:01:20 SEM UKR M 14362
420 DeCARE Cedric 07:01:42 SEM FRA M 13854
421 ROSAIRE Cedric 07:01:54 V1M SUI M 13607
422 BERRIER Ludovic 07:02:06 V1M FRA M 14097
423 SIFRE Pablo 07:02:45 SEM ESP M 13893
424 NUNES Jorge 07:02:47 V1M POR M 14180
425 PINESSO Marcelo 07:03:03 SEM BRA M 14074
426 VAILLANT Franck 07:03:20 SEM FRA M 13093
427 OBERSON Cedric 07:03:30 SEM SUI M 13801
428 RUIZ MUNOZ Saul Enrique 07:03:31 V1M MEX M 14227
429 GATTOLLIAT Alain 07:03:46 V2M SUI M 13551
430 DUROCH Philippe 07:03:59 V2M FRA M 14070
431 PITAVAL Gaetan 07:04:15 V1M FRA M 14176
432 BINKS Rebecca 07:04:33 V1F GBR F 13762
433 BEREZIN Vladislav 07:04:38 V1M RUS M 14249
434 STEDILE Nicolas 07:04:47 V1M FRA M 13578
435 KRZEMI?SKI Piotr 07:05:09 SEM POL M 14118
436 FERRARI Frank Jourdan 07:06:43 SEM FRA M 13044
437 BENDER Emmanuel 07:07:11 V2M SUI M 13173
437 KUNZ Cedric 07:07:11 V1M SUI M 13800
439 MARENA GUMBAU David 07:08:31 SEM ESP M 14141
440 JOSSERAND Jerome 07:08:32 SEM FRA M 13354
441 CLERBOUT Valentin 07:08:33 SEM FRA M 13462
441 JOSSERAND Andre 07:08:33 V3M FRA M 13511
443 DERIVAZ James 07:08:44 V1M SUI M 13668
444 BURT Susie 07:08:53 V1F GBR F 13456
445 JARABO PLANA Arnaud 07:09:10 V1M FRA M 13406
445 CHIRENT Fabrice 07:09:10 V1M FRA M 13541
447 COLLOMB PATTON Denis 07:09:39 V3M FRA M 13841
448 NUNES Alvaro 07:09:43 V1M POR M 14173
449 DEFAUX Francois 07:09:49 SEM FRA M 13106
450 LALLEMENT Johann 07:09:57 SEM FRA M 14077
451 ELLMENREICH Frederic 07:09:58 V2M FRA M 13036
452 ABRAMI Alexandre 07:10:35 SEM FRA M 14145
453 CHANDELIER Benjamin 07:10:36 SEM FRA M 14216
454 LAURENT Christophe 07:11:03 V1M BEL M 13819
455 BASTARD ROSSET Lionel 07:11:19 V2M FRA M 14164
456 BETEMPS Aurelio 07:11:45 V2M ITA M 13536
456 CHIOSO Christian 07:11:45 V1M ITA M 13568
458 GARY Jean Philippe 07:11:46 V2M FRA M 13846
459 VANDERBREETSTRAETEN Serge 07:12:13 V2M USA M 13200
460 PETOUD Fabrice 07:12:39 V1M SUI M 13698
461 SUTER Baptiste 07:12:53 SEM SUI M 13802
462 PARIS Thibault 07:14:10 SEM FRA M 14100
463 FRESNAY Cyril 07:14:18 SEM FRA M 13651
464 PAULIEN Julie 07:14:19 ESF FRA F 3 ESF 13515
465 LACOSTE Claire 07:14:41 SEF FRA F 13385
466 BOCHATON Gerard 07:15:09 V2M FRA M 13880
467 MUFFAT Pierre 07:15:10 V2M FRA M 13583
468 GUINOT Sebastien 07:15:31 V1M FRA M 13570
469 RAVANEL Julie 07:15:53 SEF FRA F 13457
470 BELLILI Karima 07:15:56 V2F FRA F 13030
471 MAHI Doumya 07:16:45 V1F FRA F 13388
472 TROESCH Patrik 07:16:51 V2M SUI M 13101
473 TANCHON Lydie 07:17:17 V1F FRA F 13429
474 CLeMENT Julien 07:17:24 V1M FRA M 14161
475 BOCH Rudi 07:17:37 V2M ITA M 14317
476 ROUSSEL Marc 07:17:44 V2M FRA M 13617
477 LE NOAN Floriane 07:18:09 SEF FRA F 13416
478 MORET Romy 07:18:10 V1F SUI F 13363
479 GRILLOT Nicolas 07:18:38 SEM FRA M 14103
480 BRASSIER Maud 07:18:41 ESF FRA F 14121
481 BOLIS Laetitia 07:19:50 SEF SUI F 13153
481 TREPANIER Scott 07:19:50 V1M USA M 14254
483 LATTION Muriel 07:19:51 ESF SUI F 13364
484 MARTIN ERIC 07:20:47 V2M FRA M 13575
485 CROUIN Caroline 07:22:31 SEF FRA F 14283
486 MICHAUD Bernard 07:22:35 V3M SUI M 13784
487 MONCOMBLE Erell 07:22:49 SEF FRA F 13547
488 BENEY Isabelle 07:23:09 V1F SUI F 13418
489 NOUGIER Baptiste 07:23:54 ESM FRA M 14357
490 NAKAGAWA Eriko 07:24:00 SEF JPN F 14090
491 OLIVERES Sophie 07:24:02 V1F FRA F 14106
492 TEPPE Anne Laure 07:24:12 SEF FRA F 14034
492 DHE Barbara 07:24:12 SEF FRA F 14042
494 OLLIER Marion 07:24:41 ESF FRA F 13059
495 RAKOVER Jean Marc 07:25:06 V2M FRA M 13664
496 TREBILLOD Christophe 07:25:17 V1M FRA M 13381
497 PLAN Isabelle 07:25:22 V1F SUI F 13726
498 ESPALIEU Cyril 07:25:39 SEM FRA M 13275
499 CHAPPAZ Solene 07:25:40 SEF FRA F 13383
500 BAIOCCO Diego 07:25:46 V1M ITA M 13817
501 DURIER Renaud 07:25:52 SEM FRA M 14329
502 DERUELLE Nadege 07:26:37 SEF SUI F 13398
503 ARPIN PONT Jocelyn 07:26:48 V1M FRA M 13124
504 DELEZ Gaetan 07:27:05 SEM SUI M 13633
505 MONNIER Hubert 07:27:21 V2M FRA M 14129
506 SIMONOT Alain 07:27:45 V3M FRA M 13835
507 GIROUD Charlenne 07:27:56 V1F SUI F 13164
508 CHATRIAN Claude Joseph 07:27:58 V2M ITA M 13811
509 CURRAL Jacky 07:28:02 V1M FRA M 14030
510 BETEMPS Elena 07:28:04 SEF ITA F 13303
511 TAYLOR Hermione 07:28:14 SEF GBR F 13773
512 ESCALLIER Marine 07:28:16 SEF FRA F 13378
513 PLAINCHAMP Muriel 07:28:17 V1F BEL F 13037
514 ESPOSITO Vitaliano 07:28:35 V2M ITA M 14204
515 SENGER Clemence 07:28:41 SEF FRA F 13476
516 NAEL Sarah 07:29:57 SEF FRA F 13033
517 POGGIO Alexandre 07:30:29 V1M SUI M 13571
518 FRACHON Jerome 07:31:09 V1M FRA M 13623
519 GAUTHIER Romaric 07:31:37 V2M FRA M 13128
520 SIQUEIRA SILVA Rogerio 07:31:58 V2M BRA M 14353
521 CAVIGLIA Stephanie 07:32:46 SEF FRA F 13031
522 GERFAUX Yann 07:33:05 V1M FRA M 13639
523 GERFAUX Severine 07:33:06 V1F FRA F 13401
524 PENOT Olivier 07:33:07 V2M FRA M 14234
525 SERAIN Vincent 07:33:11 V2M FRA M 13834
526 NICOLIN Stephane 07:33:14 V2M SUI M 13785
527 ROLLA Annalisa 07:33:30 V1F ITA F 14081
528 LUGON Arnaud 07:33:36 SEM SUI M 13532
529 BRISWALDER Arnaud 07:33:38 V1M FRA M 13343
530 BLANC GONNET Patrice 07:34:05 V1M FRA M 13901
531 PELLETIER Celine 07:34:35 SEF SUI F 14071
532 ALVAREZ Philippe 07:34:55 V1M SUI M 13095
533 BLONDEAU Fabien 07:35:16 SEM FRA M 13622
534 CHAYS Pierre Yves 07:35:21 V4M FRA M 14136
535 FLORENTZ Roland 07:35:27 V3M FRA M 13605
536 CLAYTON Chris 07:35:53 V1M GBR M 13614
537 BLANCHARD Francois 07:35:58 V3M FRA M 13176
538 HYYPPA Olli 07:36:50 V2M FIN M 13427
539 WHITTAKER Manon 07:36:56 SEF GBR F 13022
540 BELPOMME Audrey 07:37:54 SEF FRA F 13751
541 SIGRIST Pierre 07:38:30 SEM FRA M 14152
542 GERRIER Sebastien 07:38:31 V1M FRA M 14082
543 PERRON Narciso 07:38:38 V3M ITA M 13637
543 BRULPORT Axelle 07:38:38 SEF FRA F 13155
545 HO Ka Yan 07:38:59 V1F HKG F 14040
546 CHEREL Nicolas 07:39:15 V1M FRA M 13604
547 DUVERNAY Isabelle 07:39:30 V2F FRA F 13783
548 SOMMER Reto 07:40:01 V2M SUI M 13700
549 DUTER Philippe 07:40:51 V2M FRA M 13845
550 SCHWARZENBERG Marco 07:41:04 V2M ITA M 13130
551 HUMBERT Phiippe 07:42:08 V2M FRA M 13857
552 RIESCO Philippe 07:42:23 SEM SUI M 13673
553 MELO Jo 07:42:25 V1M POR M 14179
554 PETZOLD Andrea 07:42:35 V1F GER F 14062
555 CAZEMAJOR Gaelle 07:42:39 V1F FRA F 13438
556 SUCHAUT Amandine 07:42:45 V1F FRA F 13510
557 CHAPPEX Caroline 07:42:47 V1F SUI F 13724
558 OSTERHOFF Stella 07:42:48 SEF ESP F 14039
559 RACZYNSKA Sylwia 07:43:00 V1F POL F 13770
560 CHASTANG Francois 07:43:05 V2M FRA M 13626
561 ROSSI Philippe 07:43:22 V2M FRA M 13545
562 BORREILL Anne 07:43:36 V1F FRA F 13042
563 ION Sorin 07:43:45 V1M ROU M 14336
564 DESQUILBET Maximilien 07:44:15 SEM FRA M 14167
565 BALDON Michel 07:44:18 SEM ITA M 13647
566 TARTARIN Franck 07:44:23 SEM FRA M 14166
567 ROYER Marine 07:44:37 SEF FRA F 13758
568 CUSIN Valerie 07:44:49 V2F FRA F 13402
569 MARIN Annie 07:45:52 V2F FRA F 13546
570 GERNIGON Frederique 07:46:13 V1F FRA F 13358
571 EXCOFFER Gwenaelle 07:46:14 V1F FRA F 13749
572 BAVUZ Romain 07:46:34 SEM FRA M 13654
573 LATERZA JUNIOR Ivando 07:46:53 V2M BRA M 14339
574 VERMAND Stephane 07:47:11 SEM FRA M 14197
575 WENGLER Guy 07:47:17 V4M LUX M 14251
576 MANCUSO Sandrine 07:47:44 V1F FRA F 13166
577 DAVIET Celine 07:48:14 V1F FRA F 13509
578 DEGENeVE Julien 07:48:19 SEM FRA M 13611
579 CUATRECASAS Tom 07:48:34 SEM ESP M 13181
580 LEDWO? Jakub 07:48:35 V1M POL M 14228
581 BUSSOD Herve 07:49:06 V2M FRA M 13658
582 THOMPSON Gary 07:49:07 V1M GBR M 13874
583 SERRA Ramon 07:49:19 V1M ESP M 14209
584 WALKER Kevin 07:49:42 SEM USA M 14363
585 MONNET Monique 07:49:46 V2F SUI F 13727
586 COCHRANE Malcolm 07:49:53 V2M GBR M 14220
587 LINGHOFF Sanna 07:50:04 V2F SWE F 13543
588 KUHN Lucette 07:50:09 V3F FRA F 1 V3F 14115
589 KOZAKURA Shinya 07:50:19 V1M JPN M 13682
590 VIODE Romain 07:50:23 SEM FRA M 13203
591 DANY Nadine 07:50:27 V2F FRA F 13491
592 BERNARD Stephane 07:50:28 V2M FRA M 13888
593 IUORNO Florencia Soledad 07:50:29 SEF ARG F 14006
594 JOUBLIN Virginie 07:50:36 V1F FRA F 14211
595 RONG Yu 07:50:41 SEM CAN M 14261
596 CORNAZ Mauro 07:50:43 V2M ITA M 13548
597 CARCERERI Ezio 07:50:44 V2M ITA M 13812
598 GAZAGNES Thierry 07:51:16 V3M FRA M 13674
599 LERMAT Michel 07:51:39 V1M FRA M 13667
599 PILLEMENT Guillaume 07:51:39 V1M FRA M 14217
601 SIEGWART Ludovic 07:52:22 SEM SUI M 14352
602 GIRAUD Marion 07:52:29 SEF FRA F 13056
603 RAVANEL Jean Marc 07:52:40 V3M FRA M 13684
604 KIM Chulki 07:52:48 V1M KOR M 14239
605 CHOUROT Christophe 07:53:06 V1M FRA M 14125
606 JEANDEL Fanny 07:53:13 V1F FRA F 14041
607 ONNIS Massimo Fabio 07:53:16 SEM ITA M 13867
608 MCVEIGH Enda 07:53:17 V2M IRL M 13879
609 ZANELLI Michel 07:53:39 V1M FRA M 13517
610 BELADJILA Reda 07:53:47 V3M FRA M 13644
611 MARIeTHOZ Sebastien 07:54:23 SEM SUI M 13139
611 GIROUD Alain 07:54:23 V1M SUI M 13793
613 SEJALON Antoine 07:54:30 ESM FRA M 13199
614 PINTO Karina De Jesus 07:54:45 SEF BRA F 14111
615 ALEX Marie Charlotte 07:55:06 SEF FRA F 13759
616 GARDETTO Marine 07:55:09 SEF FRA F 13430
617 BELKAHIA Emir 07:56:01 SEM FRA M 14381
617 RABIER Julien 07:56:01 SEM FRA M 14201
617 LE GOC Sebastien 07:56:01 V1M FRA M 14137
620 MICHAUD Manon 07:56:58 ESF FRA F 13487
620 MASSELIER Jean Christophe 07:56:58 V1M FRA M 13576
622 BRUN Cyrille 07:57:06 SEM FRA M 13135
623 MERMILLOD Guillaume 07:57:18 SEM FRA M 13564
624 ROGET Benedicte 07:57:37 V1F FRA F 13053
625 RECUPERO Alberto 07:58:31 V1M ITA M 14214
626 BURCKLE Denis 07:59:18 V1M FRA M 14242
627 HULIN Frederic 07:59:25 V1M FRA M 13632
628 SEKI Atsuko 07:59:38 SEF JPN F 14138
629 VOUILLOZ Julie 07:59:41 SEF SUI F 13520
630 VERNET Frederic 08:00:02 V2M FRA M 14360
631 GAUDEL Anne 08:00:13 SEF FRA F 13898
632 RIOTTON Veronique 08:00:14 V2F FRA F 13899
632 LEBEAU Philippe 08:00:14 V2M FRA M 13656
634 ROSEREN Xavier 08:00:15 V1M FRA M 13900
635 CHARLET Roland 08:00:56 V3M FRA M 13129
636 ROLLIN Rachel 08:01:20 V1F FRA F 13064
637 TRUCCO Micole 08:01:23 SEF ITA F 13740
638 SAR Jean Paul 08:01:48 SEM FRA M 13500
638 CHAGNOUX Iphie 08:01:48 SEF FRA F 13776
640 GOMES DE MATOS Edgar 08:01:52 V1M BRA M 14334
641 JANDAUX Lucile 08:01:57 SEF FRA F 13489
642 FOURNIER Charles 08:01:59 V2M SUI M 13796
643 ReMONDEULAZ Dominique 08:02:04 V1F SUI F 13054
644 CUMENAL Cedric 08:02:18 V1M FRA M 13104
645 FEAUD Simon 08:02:56 ESM FRA M 13184
646 SHAYLER Alison 08:03:40 V1F GBR F 13490
647 FOREL Alban 08:04:27 V1M FRA M 13635
648 BRACQ Elisabeth 08:04:29 V3F FRA F 2 V3F 13535
649 SOUZA Cristiane 08:04:40 V1F BRA F 14108
650 DIRASSEN Celine 08:05:29 V1F FRA F 13506
651 BAETA Gustavo 08:06:05 V1M POR M 14244
652 YURINA Anna 08:06:31 SEF RUS F 14057
653 BARBET Joy 08:07:21 SEF FRA F 13631
653 TARTANSON Renaud 08:07:21 V1M FRA M 14356
655 DOUIN Lucas 08:07:26 SEM BEL M 13891
656 MOULIN Joris 08:07:45 SEM BEL M 14221
657 DELVAUX Jan 08:07:47 SEM BEL M 14219
658 MARTINS Nuno 08:08:18 SEM FRA M 13892
659 PETON LANGLOIS Theo 08:09:15 SEM FRA M 13869
660 MARTINEZ SORIANO Inmaculada 08:09:52 SEF ESP F 14028
661 ESCUDERO ALONSO Ignacio Javier 08:09:53 V1M ESP M 14232
662 CHARDONNEREAU Dany 08:09:55 V3M FRA M 13132
663 LARGUIER Quentin 08:10:11 SEM FRA M 14083
664 LARGUIER Gil 08:10:12 V3M FRA M 14248
665 PERRON Gilberto 08:10:25 V4M ITA M 13645
666 DELMAS Eric 08:10:29 V1M FRA M 14113
667 INTHIRATH Michel 08:10:36 SEM FRA M 13619
668 BRIANcON Severine 08:12:34 V1F FRA F 14127
669 DEPINAY Cedric 08:12:47 V1M FRA M 13183
670 BASO CONTRERAS Michael 08:13:15 V1M ESP M 14078
671 CHAMBEL Justine 08:13:19 SEF FRA F 13754
672 JACQUIER Magalie 08:14:22 SEF FRA F 13482
673 LATUILIERE Didier 08:14:45 V1M FRA M 13088
674 MOLIMARD Marie 08:14:51 SEF FRA F 13596
674 JACQUOD Robin 08:14:51 SEM SUI M 13703
676 SIE Marie 08:14:55 SEF FRA F 13782
677 DAVIET Stephane 08:14:56 V1M FRA M 13683
678 CHESNEY Loic 08:14:57 SEM FRA M 13890
679 CHATELLARD Flora 08:15:02 SEF FRA F 13100
680 WORRe Pascale 08:15:17 SEF LUX F 14066
681 DUBOIS Camille 08:15:20 SEF FRA F 14075
681 BERTIN Cecile 08:15:20 V1F FRA F 14076
683 GMEINER Stefan 08:15:23 V1M GER M 14380
684 ISENMANN Friedbert 08:15:26 V2M GER M 14243
685 VEILLET Eddy 08:15:28 V1M FRA M 13641
686 DANTENY Philippe 08:17:00 V3M FRA M 13538
687 DESCHILDRE Nicolas 08:17:02 SEM FRA M 13537
688 BALDON Rene 08:17:33 SEM ITA M 13640
689 RAUSIS Jean Maurice 08:18:05 V2M SUI M 13713
690 BURR Alexia 08:18:16 SEF FRA F 13156
691 CUSIN Corine 08:18:34 V3F FRA F 3 V3F 13466
692 SEMENSATIS Nicolas 08:18:43 SEM FRA M 13577
693 LLONGUERAS BRUGUERA Carme 08:18:49 V1F ESP F 14050
694 BEYTRISON Emmanuelle 08:19:10 V1F SUI F 13501
695 SCHAER Beatrice 08:19:11 V2F SUI F 13613
696 BOUVARD Laurent 08:19:14 V2M FRA M 14200
697 TOLINO CANO Maria Dolores 08:19:15 V1F ESP F 14011
698 DALFOLLO Jacinthe 08:19:34 V1F SUI F 13441
699 PANZA Emanuele 08:19:46 V2M ITA M 13070
700 BRIGHENTI Giulia 08:19:48 SEF ITA F 13035
701 KAWASHIMA Akio 08:19:50 V2M JPN M 14338
702 VERNAY Bernard 08:20:10 V4M SUI M 13679
703 GRANCON Christophe 08:20:32 V1M FRA M 13663
704 VUICHARD Magali 08:20:42 SEF FRA F 13318
705 LACEKLE Liga 08:20:47 SEF LAT F 14073
706 GOUZER Sabrina 08:20:56 V1F SUI F 14289
707 BUDRIA Serge 08:21:09 V2M FRA M 13123
708 PHILLIPS Alison 08:21:33 V2F GBR F 14094
709 SIMERAY Guillaume 08:21:40 SEM FRA M 14170
710 ZHANG Jinpeng 08:21:44 V1M CHN M 14274
711 DONATELLO Diego 08:21:47 V1M ITA M 13814
711 HASHIMOTO Rika 08:21:47 V1F JPN F 14291
713 DUNE Paul 08:21:48 V3M FRA M 13097
714 BISHOP Phil 08:21:59 V2M GBR M 13629
715 COURTHOD Marie Claire 08:23:08 SEF ITA F 13736
716 LOUVARD Nicolas 08:23:18 SEM FRA M 13539
717 LOUVARD Matthieu 08:23:19 SEM FRA M 13395
718 SOUZA Ana Cristina 08:23:31 V1F BRA F 14303
719 TROESCH Nicolas 08:24:35 SEM SUI M 13075
720 MABBOUX Josiane 08:24:37 V3F FRA F 13038
720 LEBREUX Gerard 08:24:37 V3M FRA M 13131
722 ASSIe Julie 08:25:01 SEF FRA F 13008
723 LAUGA Muriel 08:25:06 V1F FRA F 14165
724 PICO Alix 08:25:52 V1F FRA F 13080
725 JUIF Aurelien 08:25:54 SEM FRA M 14233
726 CLAEYS Cathy 08:25:57 V2F FRA F 13621
727 SPALTER Simon 08:26:22 V2M GBR M 13873
728 GOLDFISCH Ines 08:26:38 V1F GER F 14147
729 JACQUES Francis 08:27:06 V2M FRA M 14212
730 LIVAIN Sylvere 08:27:24 V3M FRA M 14223
731 DAUD Regis 08:27:40 V2M BRA M 14324
732 BELLONE Cristina 08:27:54 V2F ITA F 13528
733 BERSI Andrea 08:27:55 V2M ITA M 13690
734 SOUCHET Christophe 08:27:58 V1M FRA M 13051
735 VAN PETEGHEM Gerard 08:28:01 V3M FRA M 13876
736 NESLANY Jean 08:28:29 V3M BEL M 13666
737 BARMASSE Mario 08:28:54 V2M ITA M 13661
737 PERRIN Jean Claude 08:28:54 V2M ITA M 13459
739 WALLA Meheza 08:29:32 V1M FRA M 13119
740 ADDISON Susan 08:30:00 V2F GBR F 14162
741 CAVADINI Filippo 08:30:03 V2M ITA M 14240
742 PISU Gianluigi 08:30:16 V2M FRA M 13824
743 BURNET SMITH Dylan 08:30:18 SEM FRA M 14319
744 PROVOST Jean Paul 08:30:19 V3M FRA M 13681
745 PETEY Paolo 08:30:56 V1M ITA M 13794
746 STEIN Nina 08:30:57 SEF GER F 14065
747 DE BOSSCHeRE Maxime 08:31:15 SEM FRA M 13687
748 ARPI ROCA Quim 08:31:31 V2M ESP M 14238
749 DELITROZ Isabelle 08:31:35 V2F SUI F 13734
750 DeLITROZ Jean Marcel 08:31:36 V2M SUI M 13807
751 HENRY SEVESTRE Clemence 08:31:53 SEF FRA F 14119
752 DUCRET Fabien 08:32:44 SEM FRA M 13442
753 HIRSCH Sebastien 08:32:53 SEM FRA M 14140
753 RODOCANACHI Jean Emmanuel 08:32:53 V2M FRA M 14267
755 CIANCI Stefano 08:32:57 SEM ITA M 14262
756 GLeNIO SPINI ARANTES Glenio 08:33:03 V2M BRA M 14333
757 CHIPCHASE Sven 08:33:08 V2M GBR M 13886
758 LONFAT Raphael 08:33:50 V1M SUI M 13805
758 MARET Helene 08:33:50 V1F SUI F 13730
760 SEBASTIAN Sophie 08:34:43 SEF FRA F 13744
761 SEBASTIAN Andry 08:34:44 SEM FRA M 13826
762 BRIDY Chantal 08:35:04 V2F SUI F 13154
762 DORSAZ Veronique 08:35:04 V2F SUI F 13160
762 FAVRE Marie Helene 08:35:04 V1F SUI F 13161
765 MARBAIX Helene 08:35:06 V2F FRA F 13598
766 VILAcA TORRES Marco Vinicio 08:35:19 V2M BRA M 14361
767 HAYAKAWA Akiko 08:36:19 V2F JPN F 14208
768 HAYAKAWA Norishige 08:36:20 V2M JPN M 14250
769 ESCALLIER Florian 08:36:56 SEM FRA M 13836
770 GIESELER Bianca Lisa 08:37:41 V1F BRA F 14150
771 COMPOIS Pierrick 08:37:44 ESM FRA M 13833
772 GAUZET Christelle 08:38:33 SEF FRA F 14288
773 DANH PRIBILE Ly 08:38:34 V1F FRA F 14068
774 GUBBA Ines 08:38:44 SEF URU F 14151
775 SOSO Francis Andre 08:38:47 SEM BRA M 14354
776 MONOD Cecile 08:39:33 V1F FRA F 13083
777 KUCZERA Silke 08:40:04 V1F GER F 13556
777 BARBEY Yves 08:40:04 V1M SUI M 13669
779 LAISNEY Mathilde 08:40:32 V1F FRA F 13557
780 JAUBERT Elsa 08:40:33 SEF FRA F 14294
780 DE VASCONCELOS Dominique 08:40:33 SEM FRA M 14326
782 GAYET Brigitte 08:40:57 V3F FRA F 13040
783 ROBERT Gilles 08:41:11 V1M FRA M 13882
784 ALBERT Ester 08:41:30 V3F AND F 13150
785 MICHELLOD Lucie 08:41:32 SEF SUI F 13553
786 VAILLANT Elodie 08:41:51 SEF FRA F 13552
787 GACHET Nicolas 08:41:52 SEM FRA M 13329
788 MOLLA Pascale 08:42:09 V2F FRA F 13039
789 KOBAYASHI Kaori 08:42:12 SEF JPN F 14307
790 MARCO Frederic 08:42:18 V2M FRA M 14224
791 MATHER Catherine 08:42:30 V2F GBR F 13766
792 TARDY Lionel 08:42:44 V2M FRA M 13897
793 WINTER Emma 08:42:59 SEF GBR F 14089
793 CARRUTHERS Justine 08:42:59 V1F GBR F 14102
795 BONOMI Toma 08:43:11 SEM SUI M 13581
796 ONO Takaaki 08:43:22 V3M JPN M 14189
797 SPATHON Patrik 08:44:33 SEM SWE M 13649
798 BELHADDAD BELKHIR 08:44:43 V2M FRA M 14376
799 LAVILLAT Bernard 08:44:46 V4M FRA M 13660
800 MABBOUX Florence 08:45:36 V1F FRA F 13497
801 BAUDOIN Raymond 08:46:21 V4M FRA M 14257
802 ESTEVE ROMERO Pedro 08:46:37 V2M ESP M 14312
803 KIRKMAN Anna 08:46:47 V1F GBR F 13092
804 MARTLAND Tim 08:46:57 V2M GBR M 14237
805 LEVASSEUR Pierre 08:47:12 V2M FRA M 14235
806 UDRIOT Olivier 08:48:53 V1M SUI M 13628
807 LIU Hao 08:49:22 SEF CHN F 14187
808 FINK Annick 08:49:24 V2F SUI F 13505
808 FINK Hubert 08:49:24 V2M SUI M 13809
810 TAN Chen Fook 08:49:35 SEM MAS M 14253
811 VANDERBREETSTRAETEN Thierry 08:49:44 V2M BEL M 13121
812 HUANG Chencheng 08:50:50 SEF CHN F 13081
813 ROUSSEAU Clement 08:51:05 SEM FRA M 13134
814 BRUCHEZ Edouard 08:51:11 SEM FRA M 13848
814 MATHER Rob 08:51:11 V2M GBR M 13870
816 PROUHEZE Pierre Olivier 08:51:23 V1M FRA M 13825
817 COUTO Luciana 08:52:01 V1M BRA M 14322
818 TOIGO Gilberto 08:52:02 V2F BRA F 14007
819 DUCROS Sophie 08:52:24 SEF FRA F 14284
820 VUILLON Julie 08:52:31 SEF FRA F 14149
821 ECUYER Guy 08:53:46 V3M SUI M 14309
822 GARNETT Victoria 08:54:33 SEF GBR F 14116
823 HOUGHTON Matthew 08:55:32 SEM GBR M 14241
824 RENAUD Laurent 08:55:38 V2M FRA M 13708
825 QUEY Michel 08:55:39 V2M FRA M 13712
826 LEVENT William 08:56:05 V2M FRA M 13828
827 RISSO Luis Oscar 08:56:38 V3M ITA M 13196
827 RISSO Micaela 08:56:38 SEF ITA F 13169
829 LAUGAUDIN Solenn 08:56:41 SEF FRA F 13755
830 SILVA Joanilia 08:57:00 SEF BRA F 14206
831 KUGENIEKS Edgars 08:57:08 SEM LAT M 14134
832 ALVAREZ Marta 08:58:45 V1F ARG F 14296
833 ALVAREZ Cecilia 08:58:46 V1F ARG F 14153
833 PITIOT Lloyd 08:58:46 SEM FRA M 13107
835 WREFORD David 08:58:48 V2M GBR M 13685
836 SCHEGG Matthieu 08:59:05 V2M FRA M 14375
837 CEDRIC Lemonnier 08:59:17 V1M FRA M 13178
838 HOENINGHAUSEN Amanda 08:59:57 SEF USA F 14292
839 ROLIG Casey 09:00:03 SEM USA M 14185
840 MOULIN Sander 09:00:05 SEM BEL M 14247
841 HOENINGHAUSEN Teagen 09:00:41 SEF USA F 14293
842 MARINI Nicolas 09:01:10 SEM FRA M 13718
843 PERSSON Klara 09:01:24 SEF SWE F 13636
844 PERRIN Fabrice 09:01:30 V1M FRA M 14085
844 COURTIN Anthony 09:01:30 SEM FRA M 14321
846 EMERY Daniel 09:01:50 V4M SUI M 13111
847 DECORZENT Samuel 09:02:04 SEM FRA M 13881
847 TIZZONI Deborah 09:02:04 SEF FRA F 13587
849 PULIDO Manel 09:02:18 V1M ESP M 14226
849 SUADES Josep 09:02:18 V2M ESP M 14230
851 BARRADO VIRGILI Xavier 09:02:20 V1M ESP M 14203
852 ZATTA Valentino 09:02:21 V2M ITA M 14259
853 FABRIS Roberto 09:02:22 V2M ITA M 14255
854 RANGEL VELAZQUEZ Carlos Francisco 09:02:26 V1M MEX M 14272
855 MORIN Gil 09:02:59 V3F FRA F 13167
856 FABRY Cathy 09:03:30 V2F FRA F 13049
857 WANICHVISITGUL Wanwisa 09:05:02 SEF THA F 14174
858 DELETRAZ Marielle 09:06:30 V2F FRA F 13316
858 RICHARD Isabelle 09:06:30 V1F FRA F 13403
860 THETAZ Sebastien 09:06:32 V1M SUI M 13696
861 ROCHE Georges 09:07:41 V1M FRA M 13839
862 PASQUIER Alexandra 09:07:42 SEF FRA F 13592
863 PISELLI Stephane 09:07:45 V1M FRA M 13701
864 VACHOUX Alexandra 09:08:47 SEF FRA F 13544
865 RAMA Sophie 09:09:42 SEF SUI F 13722
866 BENITEZ ABRIO Manuel Maria 09:10:04 SEM ESP M 13672
867 ROMANILLOS Carmen 09:10:33 SEF BRA F 14302
868 GRAF Guilherme 09:10:34 SEM BRA M 14277
869 NICOLLERAT Jean 09:10:45 V1M SUI M 13579
870 MANGARD Christophe 09:11:01 V2M FRA M 13670
871 MONTI Stefane 09:11:31 V1M SUI M 13099
872 CAPPI Christine 09:12:46 V3F SUI F 13601
873 PETAY Nicolas 09:14:00 SEM FRA M 13655
874 MCAFEE Danielle 09:14:02 V1F USA F 14297
875 BRES Stephanie 09:14:56 V1F FRA F 13504
876 ROS SANCHEZ Philippe 09:14:57 V1M FRA M 13714
877 TROLLIET Loic 09:15:39 SEM FRA M 13620
878 CROSS Timothy 09:15:47 V1M GBR M 13861
879 CLeVY Jocelyn 09:16:27 SEM FRA M 13180
880 PERREAUT Jean Marc 09:17:25 V2M FRA M 13710
881 PERREAUT Catherine 09:17:26 V2F FRA F 13768
882 FRANCO REY Francoise 09:17:37 V2F FRA F 13765
883 BOSSU Marie 09:17:47 SEF FRA F 13723
884 BUTAEYE Damien 09:17:51 SEM FRA M 13823
885 PEDERSEN Tina 09:18:13 V1F SWE F 13404
886 SOUDAN Benedicte 09:19:01 V1F FRA F 13567
887 CAVORSIN Raoul 09:19:25 V1M ITA M 13689
888 CAVORSIN Christian 09:19:26 V1M ITA M 13648
889 CAVORSIN Jeanclaude 09:19:27 V2M ITA M 13562
890 DIMPRE Matthieu 09:19:31 V1M FRA M 13702
891 LALLIER LAVULLION Kevin 09:19:52 SEM FRA M 13680
892 MUZY Aymeric 09:20:45 SEM FRA M 13126
893 CEFALI Gerard 09:21:24 V3M FRA M 13136
894 CALFAYAN Emmanuel 09:21:43 V1M FRA M 13711
895 RESCA Alessandro 09:21:49 V2M ITA M 14269
896 RITTER ROCKLIN Elodie 09:22:10 V1F FRA F 13573
897 BOURGOIN Jean Philippe 09:22:22 V2M FRA M 13692
898 JOUSSE Francois 09:22:25 V2M FRA M 13625
899 MONTAMBAUX Gilles 09:23:00 V3M FRA M 13192
900 UMAZUME Yoshiaki 09:23:13 V1M JPN M 14273
900 UMAZUME Mari 09:23:13 V2F JPN F 14148
902 HENRY SEVESTRE Nathalie 09:23:33 V2F FRA F 14154
902 BOUSQUET Chloe 09:23:33 SEF FRA F 14282
904 KIEV VANN Jacques 09:23:48 V1M FRA M 13686
905 SCHNIDER Christian 09:25:39 V2M SUI M 13709
906 BARTHES Jacques Olivier 09:26:12 V2M FRA M 14370
907 PAULIEN Charlotte 09:26:21 ESF FRA F 13060
908 MORJON Marie Ange 09:26:23 V2F FRA F 13098
909 RAUSIS Brigitte 09:28:12 V2F SUI F 13102
910 MICHELLOD Manon 09:28:13 V1F SUI F 13485
910 RAMAKERS Johanna 09:28:13 V2F NED F 14198
912 GUICHAOUA Alain 09:29:38 V4M FRA M 13144
913 MATT Francis 09:30:23 V4M FRA M 13695
914 NICHOLS Caitlin 09:30:25 SEF USA F 14160
915 BOURGEOIS Dominique 09:30:28 SEM SUI M 13676
915 GIROUD Mathieu 09:30:28 SEM SUI M 13141
917 PADUA Guillerme 09:30:37 V1M BRA M 13843
918 DEVOILLE Francine 09:30:49 V2F FRA F 14131
919 DENNING Jane 09:33:53 V3F AUS F 14144
919 ANDERSON Kathryn 09:33:53 V2F GBR F 14308
921 BRUNET Beatrice 09:34:11 V2F FRA F 13492
922 POMMIER Thierry 09:34:12 V2M FRA M 13452
923 VELLEMA Keimpe 09:34:32 V2M NED M 14359
924 ORENES Serge 09:34:33 V3M FRA M 13137
925 H?GEL HOLIS Agnes 09:36:36 V1F FRA F 13746
926 BAUD Guillaume 09:36:38 V1M FRA M 13837
927 JOHNSON Caroline 09:36:48 V2F GBR F 14192
928 GANIERE Anthony 09:38:07 SEM FRA M 13133
928 ROUX Alexandre 09:38:07 SEM FRA M 14256
930 BELISSENT Jennifer 09:39:15 V2F FRA F 13662
931 BALLANDRAS Catherine 09:39:19 V1F FRA F 13152
932 COLIN Franck 09:39:27 V2M FRA M 13894
933 VIDAL Herve 09:42:30 V3M FRA M 13143
934 DANTENY Mariechristine 09:43:33 V2F FRA F 13763
935 DELESSERT Marie Claire 09:44:27 V2F SUI F 13122
936 VAN RIJTHOVEN Joyce 09:45:00 SEF NED F 14305
937 RIANDIERE Sandrine 09:45:05 V1F FRA F 14205
938 MACLEAN MARTIN Jackie 09:45:06 V1F GBR F 13638
939 RUYSSCHAERT Jeremy 09:47:40 SEM FRA M 13694
940 DJEBBAR Hasni 09:49:52 V4M FRA M 13862
941 LIEBING Gritt 09:50:18 V2F GER F 14290
942 CHENG Wan Lan Louisa 09:50:31 V2F HKG F 14246
943 WAN Max 09:52:03 SEM HKG M 14143
943 YUEN Avis 09:52:03 SEF HKG F 14054
945 SOBSTYL Katarzyna 09:52:57 SEF POL F 14182
945 KUCHARSKI Michal 09:52:57 V1M POL M 14265
947 ABDERRAHMAN Lessaid 09:53:19 SEM FRA M 13172
948 CHONG Kim Ching 09:54:03 SEM MAS M 14276
949 SANT Odile 09:56:21 V2F FRA F 13743
950 AVILA Marcelo 10:08:18 V1M ARG M 14266


ReferencementCe site est listé dans la catégorie Sport : Sports extrêmes Dictionnaire
| Accueil | La Réunion  Vue du ciel | Météo | Cyclones | Volcan | Cirques de Mafate , Cilaos , Salazie | Photos Randonnées | Randonnées Réunion: Randos Espiègle , Courses montagne | Diagonale des Fous |  Marathon des Sables | Voyages Les stats du site | Fonds écran | Plan du site | Blog de runraid | Galerie photos Sport Réunion |